createdAt,value
2022-09-23T00:00:32.028Z,100250.38
2022-09-23T00:03:17.383Z,100250.53
2022-09-23T00:06:02.385Z,100273.06
2022-09-23T00:08:46.504Z,100269.22
2022-09-23T00:11:30.400Z,100237.22
2022-09-23T00:14:14.109Z,100276.03
2022-09-23T00:16:57.941Z,100275.81
2022-09-23T00:19:43.404Z,100275.47
2022-09-23T00:22:27.191Z,100272.75
2022-09-23T00:25:11.618Z,100274.78
2022-09-23T00:27:55.652Z,100274.28
2022-09-23T00:30:42.613Z,100261.97
2022-09-23T00:33:26.417Z,100265.19
2022-09-23T00:36:15.725Z,100265.41
2022-09-23T00:39:00.090Z,100218.50
2022-09-23T00:41:44.022Z,100267.81
2022-09-23T00:44:49.222Z,100261.06
2022-09-23T00:47:39.456Z,100230.06
2022-09-23T00:50:30.215Z,100269.25
2022-09-23T00:53:19.781Z,100244.34
2022-09-23T00:56:07.349Z,100269.44
2022-09-23T00:58:52.190Z,100235.75
2022-09-23T01:01:37.543Z,100268.97
2022-09-23T01:04:22.210Z,100268.88
2022-09-23T01:07:06.068Z,100263.91
2022-09-23T01:09:51.803Z,100262.38
2022-09-23T01:12:55.263Z,100263.25
2022-09-23T01:15:49.805Z,100259.50
2022-09-23T01:18:43.523Z,100243.97
2022-09-23T01:21:44.184Z,100258.63
2022-09-23T01:24:47.813Z,100259.22
2022-09-23T01:27:46.593Z,100257.56
2022-09-23T01:30:47.308Z,100249.50
2022-09-23T01:33:40.650Z,100232.47
2022-09-23T01:36:27.229Z,100261.78
2022-09-23T01:39:17.302Z,100233.44
2022-09-23T01:42:08.163Z,100256.94
2022-09-23T01:44:58.219Z,100263.28
2022-09-23T01:47:48.431Z,100253.25
2022-09-23T01:50:54.752Z,100256.81
2022-09-23T01:53:45.299Z,100258.00
2022-09-23T01:56:34.619Z,100270.47
2022-09-23T01:59:22.797Z,100255.09
2022-09-23T02:02:15.369Z,100288.66
2022-09-23T02:05:09.796Z,100245.94
2022-09-23T02:08:00.037Z,100254.28
2022-09-23T02:10:48.461Z,100204.25
2022-09-23T02:13:38.919Z,100249.16
2022-09-23T02:16:29.260Z,100247.63
2022-09-23T02:19:16.715Z,100236.66
2022-09-23T02:22:06.748Z,100240.63
2022-09-23T02:24:50.985Z,100190.41
2022-09-23T02:27:42.331Z,100222.13
2022-09-23T02:30:30.854Z,100273.53
2022-09-23T02:33:22.745Z,100267.19
2022-09-23T02:36:12.219Z,100258.16
2022-09-23T02:39:02.047Z,100257.00
2022-09-23T02:41:53.699Z,100215.72
2022-09-23T02:44:38.128Z,100252.34
2022-09-23T02:47:29.397Z,100258.94
2022-09-23T02:50:14.002Z,100277.59
2022-09-23T02:52:59.454Z,100275.00
2022-09-23T02:55:45.858Z,100284.91
2022-09-23T02:58:31.235Z,100240.38
2022-09-23T03:01:24.274Z,100249.69
2022-09-23T03:04:17.385Z,100248.56
2022-09-23T03:07:06.443Z,100276.91
2022-09-23T03:09:56.008Z,100302.38
2022-09-23T03:12:49.160Z,100253.91
2022-09-23T03:15:38.911Z,100279.81
2022-09-23T03:18:31.682Z,100287.69
2022-09-23T03:21:20.953Z,100291.28
2022-09-23T03:24:06.878Z,100299.13
2022-09-23T03:26:53.931Z,100245.28
2022-09-23T03:29:39.258Z,100305.78
2022-09-23T03:32:26.852Z,100298.25
2022-09-23T03:35:11.248Z,100290.19
2022-09-23T03:38:02.775Z,100292.97
2022-09-23T03:40:51.076Z,100284.91
2022-09-23T03:43:38.658Z,100294.66
2022-09-23T03:46:26.632Z,100293.38
2022-09-23T03:49:15.944Z,100292.47
2022-09-23T03:52:00.269Z,100298.66
2022-09-23T03:54:44.106Z,100298.66
2022-09-23T03:57:28.027Z,100305.50
2022-09-23T04:00:13.415Z,100300.97
2022-09-23T04:02:58.542Z,100279.16
2022-09-23T04:05:43.112Z,100313.47
2022-09-23T04:08:27.391Z,100311.31
2022-09-23T04:11:11.141Z,100309.69
2022-09-23T04:13:56.482Z,100313.25
2022-09-23T04:16:40.313Z,100310.94
2022-09-23T04:19:25.594Z,100321.22
2022-09-23T04:22:10.441Z,100308.94
2022-09-23T04:24:54.242Z,100312.72
2022-09-23T04:27:38.180Z,100320.00
2022-09-23T04:30:21.996Z,100334.69
2022-09-23T04:33:05.887Z,100338.81
2022-09-23T04:35:53.431Z,100337.97
2022-09-23T04:38:37.259Z,100338.38
2022-09-23T04:41:21.216Z,100315.69
2022-09-23T04:44:05.421Z,100339.66
2022-09-23T04:46:49.423Z,100310.22
2022-09-23T04:49:33.757Z,100337.09
2022-09-23T04:52:18.898Z,100331.88
2022-09-23T04:55:02.627Z,100331.47
2022-09-23T04:57:47.339Z,100328.16
2022-09-23T05:00:31.096Z,100318.25
2022-09-23T05:03:15.205Z,100312.31
2022-09-23T05:06:02.107Z,100318.09
2022-09-23T05:08:51.495Z,100316.56
2022-09-23T05:11:36.004Z,100147.84
2022-09-23T05:14:19.834Z,100267.34
2022-09-23T05:17:03.654Z,100319.22
2022-09-23T05:19:47.497Z,100318.31
2022-09-23T05:22:31.458Z,100315.50
2022-09-23T05:25:16.677Z,100284.84
2022-09-23T05:28:00.382Z,100310.44
2022-09-23T05:30:44.620Z,100317.50
2022-09-23T05:33:28.405Z,100254.78
2022-09-23T05:36:12.160Z,100326.63
2022-09-23T05:38:58.640Z,100326.00
2022-09-23T05:41:43.753Z,100318.81
2022-09-23T05:44:27.803Z,100341.19
2022-09-23T05:47:11.500Z,100340.22
2022-09-23T05:50:00.087Z,100350.38
2022-09-23T05:52:44.574Z,100331.81
2022-09-23T05:55:28.695Z,100355.53
2022-09-23T05:58:14.427Z,100371.72
2022-09-23T06:00:58.217Z,100369.38
2022-09-23T06:03:42.706Z,100343.59
2022-09-23T06:06:29.501Z,100373.34
2022-09-23T06:09:15.091Z,100377.13
2022-09-23T06:11:58.877Z,100382.66
2022-09-23T06:14:44.027Z,100392.56
2022-09-23T06:17:27.821Z,100395.41
2022-09-23T06:20:11.647Z,100392.56
2022-09-23T06:22:56.466Z,100385.78
2022-09-23T06:25:40.264Z,100405.63
2022-09-23T06:28:24.562Z,100392.84
2022-09-23T06:31:13.731Z,100400.22
2022-09-23T06:34:07.759Z,100397.16
2022-09-23T06:36:55.656Z,100400.03
2022-09-23T06:39:39.444Z,100393.50
2022-09-23T06:42:23.292Z,100384.56
2022-09-23T06:45:08.093Z,100404.97
2022-09-23T06:47:57.894Z,100365.13
2022-09-23T06:50:42.196Z,100404.88
2022-09-23T06:53:26.726Z,100410.94
2022-09-23T06:56:12.096Z,100396.88
2022-09-23T06:58:55.864Z,100389.78
2022-09-23T07:01:39.814Z,100392.91
2022-09-23T07:04:29.216Z,100405.97
2022-09-23T07:07:14.211Z,100398.38
2022-09-23T07:09:58.760Z,100384.72
2022-09-23T07:12:42.749Z,100362.09
2022-09-23T07:15:26.488Z,100399.16
2022-09-23T07:18:10.282Z,100397.00
2022-09-23T07:20:58.917Z,100405.75
2022-09-23T07:23:43.289Z,100391.66
2022-09-23T07:26:27.457Z,100398.69
2022-09-23T07:29:14.282Z,100382.19
2022-09-23T07:32:09.842Z,100404.03
2022-09-23T07:34:57.335Z,100395.06
2022-09-23T07:37:42.452Z,100388.50
2022-09-23T07:40:26.428Z,100399.16
2022-09-23T07:43:10.271Z,100399.16
2022-09-23T07:45:54.633Z,100393.13
2022-09-23T07:48:39.385Z,100377.84
2022-09-23T07:51:25.872Z,100379.44
2022-09-23T07:54:14.117Z,100389.03
2022-09-23T07:56:58.351Z,100385.94
2022-09-23T07:59:43.248Z,100374.34
2022-09-23T08:02:27.412Z,100380.44
2022-09-23T08:05:11.280Z,100362.84
2022-09-23T08:07:55.046Z,100383.78
2022-09-23T08:10:40.238Z,100385.63
2022-09-23T08:13:24.081Z,100390.03
2022-09-23T08:16:08.050Z,100390.50
2022-09-23T08:18:52.191Z,100385.47
2022-09-23T08:21:39.399Z,100387.16
2022-09-23T08:24:24.725Z,100378.50
2022-09-23T08:27:10.337Z,100380.94
2022-09-23T08:29:54.114Z,100370.41
2022-09-23T08:32:37.802Z,100369.03
2022-09-23T08:35:21.503Z,100263.09
2022-09-23T08:38:05.574Z,100358.28
2022-09-23T08:40:51.112Z,100360.16
2022-09-23T08:43:38.077Z,100354.44
2022-09-23T08:46:27.837Z,100360.75
2022-09-23T08:49:20.174Z,100359.97
2022-09-23T08:52:13.021Z,100355.94
2022-09-23T08:54:56.814Z,100360.75
2022-09-23T08:58:14.127Z,100332.50
2022-09-23T09:01:04.392Z,100338.59
2022-09-23T09:03:52.549Z,100357.97
2022-09-23T09:06:53.072Z,100351.72
2022-09-23T09:09:43.993Z,100342.81
2022-09-23T09:12:35.525Z,100355.19
2022-09-23T09:15:24.706Z,100340.34
2022-09-23T09:18:19.829Z,100323.56
2022-09-23T09:21:12.665Z,100348.72
2022-09-23T09:23:58.126Z,100344.81
2022-09-23T09:26:42.239Z,100345.19
2022-09-23T09:29:36.985Z,100315.06
2022-09-23T09:32:33.799Z,100340.56
2022-09-23T09:35:29.220Z,100352.22
2022-09-23T09:38:13.155Z,100334.50
2022-09-23T09:41:02.865Z,100343.00
2022-09-23T09:43:52.432Z,100335.91
2022-09-23T09:47:08.769Z,100341.88
2022-09-23T09:49:59.152Z,100335.75
2022-09-23T09:52:44.176Z,100345.41
2022-09-23T09:55:29.853Z,100321.44
2022-09-23T09:58:16.532Z,100337.28
2022-09-23T10:01:01.568Z,100320.03
2022-09-23T10:03:46.460Z,100352.34
2022-09-23T10:06:32.649Z,100329.34
2022-09-23T10:09:19.560Z,100342.00
2022-09-23T10:12:11.418Z,100340.94
2022-09-23T10:14:58.155Z,100331.78
2022-09-23T10:17:42.103Z,100322.97
2022-09-23T10:20:26.003Z,100308.59
2022-09-23T10:23:16.007Z,100290.41
2022-09-23T10:26:03.825Z,100330.91
2022-09-23T10:28:51.384Z,100297.50
2022-09-23T10:31:38.444Z,100320.34
2022-09-23T10:34:26.012Z,100309.28
2022-09-23T10:37:17.107Z,100317.31
2022-09-23T10:40:19.681Z,100316.75
2022-09-23T10:43:42.371Z,100315.75
2022-09-23T10:46:42.347Z,100309.84
2022-09-23T10:50:08.087Z,100305.91
2022-09-23T10:53:14.308Z,100296.06
2022-09-23T10:56:10.654Z,100297.63
2022-09-23T10:59:07.774Z,100274.38
2022-09-23T11:02:04.468Z,100282.84
2022-09-23T11:05:19.750Z,100292.28
2022-09-23T11:08:28.616Z,100260.78
2022-09-23T11:11:25.594Z,100283.44
2022-09-23T11:14:42.761Z,100296.44
2022-09-23T11:17:51.377Z,100285.34
2022-09-23T11:20:47.097Z,100268.84
2022-09-23T11:23:58.485Z,100287.69
2022-09-23T11:26:53.901Z,100278.88
2022-09-23T11:30:02.835Z,100263.53
2022-09-23T11:33:14.161Z,100249.56
2022-09-23T11:36:03.035Z,100264.66
2022-09-23T11:38:51.019Z,100271.72
2022-09-23T11:41:38.545Z,100267.19
2022-09-23T11:44:28.767Z,100276.50
2022-09-23T11:47:21.849Z,100277.09
2022-09-23T11:50:16.135Z,100257.59
2022-09-23T11:53:08.175Z,100301.28
2022-09-23T11:56:02.009Z,100299.63
2022-09-23T11:58:56.306Z,100286.19
2022-09-23T12:01:49.580Z,100290.63
2022-09-23T12:04:52.758Z,100291.63
2022-09-23T12:07:48.138Z,100278.25
2022-09-23T12:10:42.285Z,100284.47
2022-09-23T12:13:37.272Z,100280.81
2022-09-23T12:16:59.739Z,100282.41
2022-09-23T12:20:24.555Z,100287.31
2022-09-23T12:23:22.455Z,100265.56
2022-09-23T12:26:14.534Z,100289.72
2022-09-23T12:29:02.937Z,100289.97
2022-09-23T12:31:48.284Z,100278.44
2022-09-23T12:34:39.326Z,100244.97
2022-09-23T12:37:30.374Z,100278.66
2022-09-23T12:40:23.952Z,100271.16
2022-09-23T12:43:16.354Z,100279.16
2022-09-23T12:46:19.972Z,100271.34
2022-09-23T12:49:06.662Z,100204.47
2022-09-23T12:52:25.197Z,100264.22
2022-09-23T12:55:51.624Z,100267.28
2022-09-23T12:58:39.436Z,100263.50
2022-09-23T13:01:25.288Z,100282.84
2022-09-23T13:04:47.228Z,100287.38
2022-09-23T13:07:34.238Z,100279.78
2022-09-23T13:10:30.529Z,100284.22
2022-09-23T13:13:24.378Z,100276.50
2022-09-23T13:16:14.582Z,100290.56
2022-09-23T13:18:59.133Z,100292.03
2022-09-23T13:22:09.251Z,100284.75
2022-09-23T13:24:55.663Z,100275.28
2022-09-23T13:27:51.594Z,100280.81
2022-09-23T13:30:36.767Z,100285.94
2022-09-23T13:33:28.565Z,100281.41
2022-09-23T13:36:15.205Z,100286.16
2022-09-23T13:39:17.197Z,100283.59
2022-09-23T13:42:04.722Z,100282.94
2022-09-23T13:44:49.202Z,100283.00
2022-09-23T13:47:37.925Z,100288.88
2022-09-23T13:50:23.927Z,100280.31
2022-09-23T13:53:10.980Z,100289.94
2022-09-23T13:56:03.095Z,100287.25
2022-09-23T13:58:46.921Z,100295.75
2022-09-23T14:01:33.069Z,100291.63
2022-09-23T14:04:25.953Z,100296.50
2022-09-23T14:07:13.474Z,100288.94
2022-09-23T14:09:57.367Z,100280.03
2022-09-23T14:12:41.413Z,100279.25
2022-09-23T14:15:25.418Z,100278.59
2022-09-23T14:18:10.172Z,100279.38
2022-09-23T14:20:55.286Z,100283.06
2022-09-23T14:23:46.119Z,100272.66
2022-09-23T14:26:30.833Z,100275.19
2022-09-23T14:29:17.270Z,100259.63
2022-09-23T14:32:04.293Z,100259.72
2022-09-23T14:34:51.930Z,100262.59
2022-09-23T14:38:00.554Z,100263.75
2022-09-23T14:40:53.664Z,100269.75
2022-09-23T14:43:37.560Z,100260.41
2022-09-23T14:46:23.445Z,100270.72
2022-09-23T14:49:15.738Z,100262.09
2022-09-23T14:52:02.137Z,100254.25
2022-09-23T14:54:47.909Z,100251.50
2022-09-23T14:57:32.479Z,100264.31
2022-09-23T15:00:20.184Z,100268.84
2022-09-23T15:03:05.984Z,100248.38
2022-09-23T15:05:52.825Z,100260.31
2022-09-23T15:08:37.308Z,100263.84
2022-09-23T15:11:22.932Z,100258.41
2022-09-23T15:14:33.040Z,100263.78
2022-09-23T15:17:26.587Z,100265.81
2022-09-23T15:20:21.363Z,100240.59
2022-09-23T15:23:05.196Z,100267.50
2022-09-23T15:25:52.677Z,100177.31
2022-09-23T15:28:38.038Z,100262.44
2022-09-23T15:31:26.766Z,100243.50
2022-09-23T15:34:12.005Z,100245.69
2022-09-23T15:36:55.878Z,100271.38
2022-09-23T15:39:39.694Z,100273.75
2022-09-23T15:42:23.597Z,100282.22
2022-09-23T15:45:12.232Z,100286.66
2022-09-23T15:47:57.243Z,100283.94
2022-09-23T15:50:42.540Z,100284.41
2022-09-23T15:53:28.495Z,100289.13
2022-09-23T15:56:13.357Z,100280.38
2022-09-23T15:58:57.320Z,100280.03
2022-09-23T16:01:44.360Z,100283.28
2022-09-23T16:04:28.357Z,100280.25
2022-09-23T16:07:17.129Z,100287.25
2022-09-23T16:10:01.028Z,100260.72
2022-09-23T16:12:45.519Z,100276.56
2022-09-23T16:15:30.389Z,100288.69
2022-09-23T16:18:15.762Z,100292.94
2022-09-23T16:20:59.540Z,100273.34
2022-09-23T16:23:47.589Z,100307.16
2022-09-23T16:26:34.679Z,100306.13
2022-09-23T16:29:18.478Z,100310.63
2022-09-23T16:32:02.699Z,100322.19
2022-09-23T16:34:47.893Z,100319.38
2022-09-23T16:37:31.773Z,100322.97
2022-09-23T16:40:20.603Z,100321.66
2022-09-23T16:43:05.516Z,100330.09
2022-09-23T16:45:49.473Z,100342.28
2022-09-23T16:48:33.198Z,100336.97
2022-09-23T16:51:20.683Z,100342.91
2022-09-23T16:54:10.327Z,100350.41
2022-09-23T16:56:55.169Z,100362.84
2022-09-23T16:59:52.687Z,100353.53
2022-09-23T17:02:53.902Z,100363.78
2022-09-23T17:05:38.075Z,100367.75
2022-09-23T17:08:23.319Z,100378.56
2022-09-23T17:11:07.048Z,100365.75
2022-09-23T17:13:51.705Z,100379.75
2022-09-23T17:16:35.986Z,100373.34
2022-09-23T17:19:20.057Z,100381.66
2022-09-23T17:22:03.745Z,100385.22
2022-09-23T17:24:48.892Z,100370.03
2022-09-23T17:27:32.885Z,100383.28
2022-09-23T17:30:16.892Z,100390.88
2022-09-23T17:33:00.645Z,100389.75
2022-09-23T17:35:44.373Z,100372.19
2022-09-23T17:38:29.585Z,100383.03
2022-09-23T17:41:15.847Z,100390.81
2022-09-23T17:44:00.799Z,100389.94
2022-09-23T17:46:44.789Z,100393.69
2022-09-23T17:49:29.009Z,100390.44
2022-09-23T17:52:12.762Z,100393.59
2022-09-23T17:54:56.492Z,100382.19
2022-09-23T17:57:41.597Z,100384.63
2022-09-23T18:00:26.022Z,100398.56
2022-09-23T18:03:09.924Z,100386.53
2022-09-23T18:05:54.029Z,100395.41
2022-09-23T18:08:38.270Z,100404.63
2022-09-23T18:11:24.377Z,100395.06
2022-09-23T18:14:15.394Z,100400.00
2022-09-23T18:16:59.338Z,100398.81
2022-09-23T18:19:43.254Z,100401.91
2022-09-23T18:22:27.034Z,100397.44
2022-09-23T18:25:35.225Z,100388.69
2022-09-23T18:28:14.806Z,100399.25
2022-09-23T18:30:59.927Z,100394.09
2022-09-23T18:33:43.807Z,100400.78
2022-09-23T18:36:28.186Z,100404.53
2022-09-23T18:39:12.383Z,100395.00
2022-09-23T18:41:56.305Z,100390.63
2022-09-23T18:44:40.855Z,100385.66
2022-09-23T18:47:43.641Z,100393.78
2022-09-23T18:50:43.919Z,100399.09
2022-09-23T18:53:44.091Z,100366.97
2022-09-23T18:56:33.615Z,100391.03
2022-09-23T18:59:20.745Z,100387.31
2022-09-23T19:02:05.029Z,100387.50
2022-09-23T19:04:49.456Z,100349.47
2022-09-23T19:07:33.634Z,100387.53
2022-09-23T19:10:20.059Z,100379.25
2022-09-23T19:13:04.387Z,100353.25
2022-09-23T19:15:48.739Z,100343.59
2022-09-23T19:18:33.894Z,100381.47
2022-09-23T19:21:20.656Z,100367.88
2022-09-23T19:24:07.334Z,100383.72
2022-09-23T19:26:55.431Z,100352.81
2022-09-23T19:29:40.239Z,100363.16
2022-09-23T19:32:27.360Z,100353.69
2022-09-23T19:35:16.394Z,100393.50
2022-09-23T19:38:01.474Z,100388.09
2022-09-23T19:40:49.727Z,100356.81
2022-09-23T19:43:37.065Z,100349.19
2022-09-23T19:46:21.063Z,100381.22
2022-09-23T19:49:06.582Z,100392.50
2022-09-23T19:51:50.647Z,100393.38
2022-09-23T19:54:34.595Z,100342.56
2022-09-23T19:57:19.588Z,100392.59
2022-09-23T20:00:06.364Z,100388.66
2022-09-23T20:02:56.883Z,100384.66
2022-09-23T20:05:41.083Z,100391.38
2022-09-23T20:08:25.038Z,100390.41
2022-09-23T20:11:11.224Z,100388.41
2022-09-23T20:13:59.977Z,100386.25
2022-09-23T20:16:45.679Z,100395.72
2022-09-23T20:19:29.556Z,100404.59
2022-09-23T20:22:33.159Z,100405.75
2022-09-23T20:25:17.557Z,100394.16
2022-09-23T20:28:00.322Z,100396.91
2022-09-23T20:30:44.175Z,100403.53
2022-09-23T20:33:30.266Z,100415.31
2022-09-23T20:36:14.297Z,100403.50
2022-09-23T20:38:59.866Z,100408.91
2022-09-23T20:41:43.611Z,100405.91
2022-09-23T20:44:27.441Z,100404.13
2022-09-23T20:47:14.119Z,100394.97
2022-09-23T20:49:59.202Z,100378.94
2022-09-23T20:52:43.017Z,100405.44
2022-09-23T20:55:27.245Z,100391.88
2022-09-23T20:58:11.015Z,100391.97
2022-09-23T21:00:54.826Z,100385.38
2022-09-23T21:03:40.603Z,100380.81
2022-09-23T21:06:26.356Z,100360.22
2022-09-23T21:09:10.112Z,100385.38
2022-09-23T21:11:54.028Z,100375.81
2022-09-23T21:14:37.662Z,100378.19
2022-09-23T21:17:21.427Z,100372.06
2022-09-23T21:20:05.694Z,100375.94
2022-09-23T21:22:52.111Z,100375.97
2022-09-23T21:25:36.687Z,100383.44
2022-09-23T21:28:20.762Z,100382.03
2022-09-23T21:31:06.644Z,100344.50
2022-09-23T21:33:53.546Z,100375.09
2022-09-23T21:36:38.875Z,100363.91
2022-09-23T21:39:24.015Z,100382.94
2022-09-23T21:42:07.677Z,100387.19
2022-09-23T21:44:51.506Z,100371.25
2022-09-23T21:47:35.282Z,100381.59
2022-09-23T21:50:19.305Z,100380.13
2022-09-23T21:53:03.083Z,100385.28
2022-09-23T21:55:48.927Z,100356.06
2022-09-23T21:58:33.981Z,100374.13
2022-09-23T22:01:20.112Z,100389.13
2022-09-23T22:04:08.526Z,100365.84
2022-09-23T22:06:53.980Z,100378.56
2022-09-23T22:09:38.357Z,100382.25
2022-09-23T22:12:24.114Z,100397.44
2022-09-23T22:15:09.935Z,100389.75
2022-09-23T22:17:54.119Z,100385.03
2022-09-23T22:20:37.925Z,100384.09
2022-09-23T22:23:21.728Z,100377.81
2022-09-23T22:26:05.420Z,100378.25
2022-09-23T22:29:08.291Z,100396.31
2022-09-23T22:32:09.507Z,100392.69
2022-09-23T22:34:53.651Z,100388.25
2022-09-23T22:37:38.402Z,100387.47
2022-09-23T22:40:24.165Z,100391.69
2022-09-23T22:43:07.976Z,100387.09
2022-09-23T22:45:53.151Z,100380.28
2022-09-23T22:48:36.958Z,100383.41
2022-09-23T22:51:22.286Z,100375.16
2022-09-23T22:54:06.591Z,100363.59
2022-09-23T22:56:50.894Z,100377.09
2022-09-23T22:59:34.608Z,100378.38
2022-09-23T23:02:21.941Z,100354.63
2022-09-23T23:05:06.363Z,100252.25
2022-09-23T23:07:50.125Z,100377.44
2022-09-23T23:10:33.869Z,100383.59
2022-09-23T23:13:17.736Z,100384.50
2022-09-23T23:16:05.597Z,100374.72
2022-09-23T23:18:50.752Z,100371.47
2022-09-23T23:21:35.779Z,100360.09
2022-09-23T23:24:21.054Z,100379.84
2022-09-23T23:27:04.961Z,100353.69
2022-09-23T23:29:48.760Z,100375.88
2022-09-23T23:32:32.543Z,100373.59
2022-09-23T23:35:18.321Z,100362.44
2022-09-23T23:38:01.950Z,100357.16
2022-09-23T23:40:46.337Z,100381.25
2022-09-23T23:43:30.178Z,100366.63
2022-09-23T23:46:15.166Z,100373.38
2022-09-23T23:48:59.896Z,100380.44
2022-09-23T23:51:45.011Z,100370.00
2022-09-23T23:54:28.762Z,100368.72
2022-09-23T23:57:12.440Z,100373.28
2022-09-23T23:59:56.266Z,100379.69
